Aeroporto :
LOGIN :

Iscrizione | Disclaimer

   EN    FR    IT 

 










Sommario :    VFR   VFR Marginale   IFR   IFR Intensivo   IFR Molto Intensivo
Visibilità : 
Base nubi : 
>= 8 km
>= 3000ft
5 / 8 km
1000 / 3000 ft
1500m / 5 km
500 / 1000 ft
800 / 1500m
200 / 500 ft
< 800m
< 200 ft
Simboli :   Temporali  Nebbia  Neve Forte  Precipitazioni Forti  Vento > 20 kt
SIGMETs :   Varie  Temporali  Ghiacco  Turbolenza  Onda orograficha  Ceneri Vulcaniche






- Altitudine del aeroporto : 788 ft
- Codice IATA : DCM


LFCK - Castres-Mazamet

ULTIMO METAR :
  • 171900Z AUTO 27011KT 9999 BKN015 OVC021 09/08 Q1031 TEMPO 3000 -SHRA BKN006 BKN020TCU

METARs OBSOLETI :
  • 171830Z AUTO 30006KT 9999 BKN011 OVC018 09/08 Q1031 TEMPO 3000 -SHRA BKN006 BKN020TCU
  • 171800Z AUTO 27007KT 9999 -RADZ OVC013 09/08 Q1031 TEMPO 3000 -SHRA BKN006 BKN020TCU
  • 171730Z AUTO 27005KT 9999 -RA BKN014/// BKN022/// OVC052/// ///TCU 09/08 Q1030 TEMPO 3000 -SHRA BKN006 BKN020TCU
  • 171700Z AUTO 27006KT 9999 BKN018 BKN029 BKN045 09/08 Q1030 TEMPO 2000 RADZ BKN006
  • 171630Z AUTO 27006KT 9999 -RADZ FEW012 SCT019 BKN024 09/08 Q1030 TEMPO 2000 RADZ BKN006

TAF TAF LFCK
Valido dal 17 a 18 ore il 18 a 03 ore UTC


171700Z 1718/1803 29010KT 9999 BKN035
TEMPO 1718/1721 3000 -SHRA BKN006 BKN020TCU
BECMG 1722/1724 CAVOK



MetMap, La meteo Aeronautica in un colpo d'occhio ! - Copyright ORBIFLY Dicembre 2007 - Disclaimer

ORBIFLY MET'MAP TEAM :

Programmazione e sviluppo : Alexandra Zaïnal
Concezione : Baudouin d'Aumeries
Aiuto per la programmazione : Marc-Olivier Méhu
Supporto tecnico e logistico : Manuel Goepfert
Aiuto per la traduzione : Arnaldo La Scala

Contatto : metmap@orbifly.com




FONTI E CREDITI :

   NOAA